Capitol Logistics 235


KPHX
Phoenix Sky Harbor International Airport
Phoenix, Arizona, US
KMIA
Miami International Airport
Miami, Florida, US

Route Details

Aircraft Information
Primary: Boeing 767-300BDSF
Backup: Not Available
Route Data
Distance: 1723nm
Sched. Duration: 4h 00m
Avg. Duration: 3h 93m (-6m)
Times Flown: 7
Recm'd Route: ECLPS1 PHASE ELP FST J86 LEV Y290 BLVNS Y290 BAGGS SSCOT5
Planned Altitude: 35,000ft
Origin Wx: KPHX 080551Z 26008KT 10SM CLR 37/11 A2982 RMK AO2 SLP074 T03720106 10422 20367 51016
Dest. Wx: KMIA 080553Z 11007KT 10SM FEW030 BKN250 29/24 A3010 RMK AO2 SLP191 T02890244 10300 20289 58014
Notes:

Financial History
Total Freight: 551,466lbs
Average Load: 78,781lbs/flt
Fuel Used: 293,372lbs
Avg. Fuel Used: 41,910lbs/flt
Fuel Expense: $237,631
Avg. Fuel Expense: $33,947
Avg. Fuel Cost: $0.81/lbs
Total Gross Income: $782,860
Pilot Pay: $1,263
Total Expenses: $84,913
Total Revenue: $455,100
Average Revenue: $111,837.12